sensor_id;sensor_type;location;lat;lon;timestamp;temperature;humidity
41882;DHT22;27562;47.524;12.404;2023-02-28T00:02:17;-2.50;99.90
41882;DHT22;27562;47.524;12.404;2023-02-28T00:04:43;-2.60;99.90
41882;DHT22;27562;47.524;12.404;2023-02-28T00:07:09;-2.70;99.90
41882;DHT22;27562;47.524;12.404;2023-02-28T00:09:34;-2.80;99.90
41882;DHT22;27562;47.524;12.404;2023-02-28T00:12:00;-2.90;99.90
41882;DHT22;27562;47.524;12.404;2023-02-28T00:14:30;-3.00;99.90
41882;DHT22;27562;47.524;12.404;2023-02-28T00:16:55;-3.10;99.90
41882;DHT22;27562;47.524;12.404;2023-02-28T00:19:21;-3.20;99.90
41882;DHT22;27562;47.524;12.404;2023-02-28T00:21:46;-3.30;99.90
41882;DHT22;27562;47.524;12.404;2023-02-28T00:24:12;-3.40;99.90
41882;DHT22;27562;47.524;12.404;2023-02-28T00:26:37;-3.50;99.90
41882;DHT22;27562;47.524;12.404;2023-02-28T00:29:03;-3.60;99.90
41882;DHT22;27562;47.524;12.404;2023-02-28T00:31:29;-3.70;99.90
41882;DHT22;27562;47.524;12.404;2023-02-28T00:33:54;-3.70;99.90
41882;DHT22;27562;47.524;12.404;2023-02-28T00:36:20;-3.70;99.90
41882;DHT22;27562;47.524;12.404;2023-02-28T00:38:45;-3.70;99.90
41882;DHT22;27562;47.524;12.404;2023-02-28T00:41:11;-3.70;99.90
41882;DHT22;27562;47.524;12.404;2023-02-28T00:43:37;-3.80;99.90
41882;DHT22;27562;47.524;12.404;2023-02-28T00:46:03;-3.90;99.90
41882;DHT22;27562;47.524;12.404;2023-02-28T00:48:29;-3.90;99.90
41882;DHT22;27562;47.524;12.404;2023-02-28T00:50:54;-4.00;99.90
41882;DHT22;27562;47.524;12.404;2023-02-28T00:53:20;-3.90;99.90
41882;DHT22;27562;47.524;12.404;2023-02-28T00:55:46;-4.00;99.90
41882;DHT22;27562;47.524;12.404;2023-02-28T00:58:11;-4.00;99.90
41882;DHT22;27562;47.524;12.404;2023-02-28T01:00:37;-4.00;99.90
41882;DHT22;27562;47.524;12.404;2023-02-28T01:03:02;-4.10;99.90
41882;DHT22;27562;47.524;12.404;2023-02-28T01:05:28;-4.10;99.90
41882;DHT22;27562;47.524;12.404;2023-02-28T01:07:53;-4.20;99.90
41882;DHT22;27562;47.524;12.404;2023-02-28T01:10:19;-4.30;99.90
41882;DHT22;27562;47.524;12.404;2023-02-28T01:12:46;-4.30;99.90
41882;DHT22;27562;47.524;12.404;2023-02-28T01:15:11;-4.30;99.90
41882;DHT22;27562;47.524;12.404;2023-02-28T01:17:37;-4.30;99.90
41882;DHT22;27562;47.524;12.404;2023-02-28T01:20:03;-4.30;99.90
41882;DHT22;27562;47.524;12.404;2023-02-28T01:22:29;-4.30;99.90
41882;DHT22;27562;47.524;12.404;2023-02-28T01:24:54;-4.20;99.90
41882;DHT22;27562;47.524;12.404;2023-02-28T01:27:20;-4.20;99.90
41882;DHT22;27562;47.524;12.404;2023-02-28T01:29:46;-4.10;99.90
41882;DHT22;27562;47.524;12.404;2023-02-28T01:32:11;-4.10;99.90
41882;DHT22;27562;47.524;12.404;2023-02-28T01:34:37;-4.00;99.90
41882;DHT22;27562;47.524;12.404;2023-02-28T01:37:02;-3.90;99.90
41882;DHT22;27562;47.524;12.404;2023-02-28T01:39:28;-3.90;99.90
41882;DHT22;27562;47.524;12.404;2023-02-28T01:41:54;-3.80;99.90
41882;DHT22;27562;47.524;12.404;2023-02-28T01:47:04;-3.90;99.90
41882;DHT22;27562;47.524;12.404;2023-02-28T01:49:29;-3.90;99.90
41882;DHT22;27562;47.524;12.404;2023-02-28T01:51:55;-3.90;99.90
41882;DHT22;27562;47.524;12.404;2023-02-28T01:54:31;-3.90;99.90
41882;DHT22;27562;47.524;12.404;2023-02-28T01:57:06;-3.80;99.90
41882;DHT22;27562;47.524;12.404;2023-02-28T02:01:58;-3.80;99.90
41882;DHT22;27562;47.524;12.404;2023-02-28T02:04:24;-3.80;99.90
41882;DHT22;27562;47.524;12.404;2023-02-28T02:06:51;-3.90;99.90
41882;DHT22;27562;47.524;12.404;2023-02-28T02:09:17;-3.90;99.90
41882;DHT22;27562;47.524;12.404;2023-02-28T02:11:43;-3.90;99.90
41882;DHT22;27562;47.524;12.404;2023-02-28T02:16:51;-4.10;99.90
41882;DHT22;27562;47.524;12.404;2023-02-28T02:22:19;-4.30;99.90
41882;DHT22;27562;47.524;12.404;2023-02-28T02:40:02;-4.50;99.90
41882;DHT22;27562;47.524;12.404;2023-02-28T02:48:15;-4.40;99.90
41882;DHT22;27562;47.524;12.404;2023-02-28T02:50:47;-4.40;99.90
41882;DHT22;27562;47.524;12.404;2023-02-28T02:53:14;-4.50;99.90
41882;DHT22;27562;47.524;12.404;2023-02-28T02:55:41;-4.50;99.90
41882;DHT22;27562;47.524;12.404;2023-02-28T02:58:08;-4.60;99.90
41882;DHT22;27562;47.524;12.404;2023-02-28T03:00:37;-4.60;99.90
41882;DHT22;27562;47.524;12.404;2023-02-28T03:03:05;-4.60;99.90
41882;DHT22;27562;47.524;12.404;2023-02-28T03:05:35;-4.60;99.90
41882;DHT22;27562;47.524;12.404;2023-02-28T03:08:04;-4.70;99.90
41882;DHT22;27562;47.524;12.404;2023-02-28T03:10:32;-4.70;99.90
41882;DHT22;27562;47.524;12.404;2023-02-28T03:20:56;-4.60;99.90
41882;DHT22;27562;47.524;12.404;2023-02-28T03:23:30;-4.60;99.90
41882;DHT22;27562;47.524;12.404;2023-02-28T03:26:04;-4.60;99.90
41882;DHT22;27562;47.524;12.404;2023-02-28T03:30:59;-4.60;99.90
41882;DHT22;27562;47.524;12.404;2023-02-28T03:33:27;-4.60;99.90
41882;DHT22;27562;47.524;12.404;2023-02-28T03:35:58;-4.70;99.90
41882;DHT22;27562;47.524;12.404;2023-02-28T03:41:22;-4.80;99.90
41882;DHT22;27562;47.524;12.404;2023-02-28T03:43:56;-4.90;99.90
41882;DHT22;27562;47.524;12.404;2023-02-28T03:46:23;-5.00;99.90
41882;DHT22;27562;47.524;12.404;2023-02-28T03:48:51;-4.90;99.90
41882;DHT22;27562;47.524;12.404;2023-02-28T03:51:19;-4.90;99.90
41882;DHT22;27562;47.524;12.404;2023-02-28T03:53:50;-5.00;99.90
41882;DHT22;27562;47.524;12.404;2023-02-28T03:56:22;-4.90;99.90
41882;DHT22;27562;47.524;12.404;2023-02-28T03:58:51;-4.90;99.90
41882;DHT22;27562;47.524;12.404;2023-02-28T04:01:30;-4.90;99.90
41882;DHT22;27562;47.524;12.404;2023-02-28T04:03:58;-4.90;99.90
41882;DHT22;27562;47.524;12.404;2023-02-28T04:06:24;-4.90;99.90
41882;DHT22;27562;47.524;12.404;2023-02-28T04:08:50;-4.90;99.90
41882;DHT22;27562;47.524;12.404;2023-02-28T04:11:23;-4.90;99.90
41882;DHT22;27562;47.524;12.404;2023-02-28T04:13:49;-5.00;99.90
41882;DHT22;27562;47.524;12.404;2023-02-28T04:16:15;-5.00;99.90
41882;DHT22;27562;47.524;12.404;2023-02-28T04:18:41;-5.10;99.90
41882;DHT22;27562;47.524;12.404;2023-02-28T04:21:08;-5.20;99.90
41882;DHT22;27562;47.524;12.404;2023-02-28T04:23:34;-5.20;99.90
41882;DHT22;27562;47.524;12.404;2023-02-28T04:26:00;-5.30;99.90
41882;DHT22;27562;47.524;12.404;2023-02-28T04:28:25;-5.40;99.90
41882;DHT22;27562;47.524;12.404;2023-02-28T04:30:55;-5.50;99.90
41882;DHT22;27562;47.524;12.404;2023-02-28T04:33:20;-5.60;99.90
41882;DHT22;27562;47.524;12.404;2023-02-28T04:35:46;-5.60;99.90
41882;DHT22;27562;47.524;12.404;2023-02-28T04:38:11;-5.60;99.90
41882;DHT22;27562;47.524;12.404;2023-02-28T04:40:37;-5.50;99.90
41882;DHT22;27562;47.524;12.404;2023-02-28T04:43:03;-5.50;99.90
41882;DHT22;27562;47.524;12.404;2023-02-28T04:45:28;-5.40;99.90
41882;DHT22;27562;47.524;12.404;2023-02-28T04:47:57;-5.40;99.90
41882;DHT22;27562;47.524;12.404;2023-02-28T04:50:23;-5.40;99.90
41882;DHT22;27562;47.524;12.404;2023-02-28T04:52:49;-5.40;99.90
41882;DHT22;27562;47.524;12.404;2023-02-28T04:55:14;-5.30;99.90
41882;DHT22;27562;47.524;12.404;2023-02-28T04:57:40;-5.30;99.90
41882;DHT22;27562;47.524;12.404;2023-02-28T05:00:09;-5.40;99.90
41882;DHT22;27562;47.524;12.404;2023-02-28T05:02:37;-5.40;99.90
41882;DHT22;27562;47.524;12.404;2023-02-28T05:05:03;-5.40;99.90
41882;DHT22;27562;47.524;12.404;2023-02-28T05:07:29;-5.40;99.90
41882;DHT22;27562;47.524;12.404;2023-02-28T05:09:55;-5.40;99.90
41882;DHT22;27562;47.524;12.404;2023-02-28T05:12:20;-5.40;99.90
41882;DHT22;27562;47.524;12.404;2023-02-28T05:14:46;-5.40;99.90
41882;DHT22;27562;47.524;12.404;2023-02-28T05:17:11;-5.40;99.90
41882;DHT22;27562;47.524;12.404;2023-02-28T05:19:37;-5.40;99.90
41882;DHT22;27562;47.524;12.404;2023-02-28T05:22:02;-5.50;99.90
41882;DHT22;27562;47.524;12.404;2023-02-28T05:24:28;-5.50;99.90
41882;DHT22;27562;47.524;12.404;2023-02-28T05:26:54;-5.50;99.90
41882;DHT22;27562;47.524;12.404;2023-02-28T05:29:20;-5.50;99.90
41882;DHT22;27562;47.524;12.404;2023-02-28T05:31:46;-5.50;99.90
41882;DHT22;27562;47.524;12.404;2023-02-28T05:34:11;-5.50;99.90
41882;DHT22;27562;47.524;12.404;2023-02-28T05:36:38;-5.50;99.90
41882;DHT22;27562;47.524;12.404;2023-02-28T05:39:05;-5.60;99.90
41882;DHT22;27562;47.524;12.404;2023-02-28T05:41:30;-5.60;99.90
41882;DHT22;27562;47.524;12.404;2023-02-28T05:43:57;-5.60;99.90
41882;DHT22;27562;47.524;12.404;2023-02-28T05:46:22;-5.70;99.90
41882;DHT22;27562;47.524;12.404;2023-02-28T05:48:48;-5.70;99.90
41882;DHT22;27562;47.524;12.404;2023-02-28T05:51:14;-5.70;99.90
41882;DHT22;27562;47.524;12.404;2023-02-28T05:53:40;-5.70;99.90
41882;DHT22;27562;47.524;12.404;2023-02-28T05:56:05;-5.70;99.90
41882;DHT22;27562;47.524;12.404;2023-02-28T05:58:31;-5.70;99.90
41882;DHT22;27562;47.524;12.404;2023-02-28T06:00:57;-5.60;99.90
41882;DHT22;27562;47.524;12.404;2023-02-28T06:03:23;-5.60;99.90
41882;DHT22;27562;47.524;12.404;2023-02-28T06:05:48;-5.60;99.90
41882;DHT22;27562;47.524;12.404;2023-02-28T06:08:15;-5.60;99.90
41882;DHT22;27562;47.524;12.404;2023-02-28T06:10:41;-5.70;99.90
41882;DHT22;27562;47.524;12.404;2023-02-28T06:13:07;-5.70;99.90
41882;DHT22;27562;47.524;12.404;2023-02-28T06:15:32;-5.70;99.90
41882;DHT22;27562;47.524;12.404;2023-02-28T06:17:58;-5.70;99.90
41882;DHT22;27562;47.524;12.404;2023-02-28T06:20:24;-5.70;99.90
41882;DHT22;27562;47.524;12.404;2023-02-28T06:22:50;-5.70;99.90
41882;DHT22;27562;47.524;12.404;2023-02-28T06:25:16;-5.70;99.90
41882;DHT22;27562;47.524;12.404;2023-02-28T06:27:42;-5.80;99.90
41882;DHT22;27562;47.524;12.404;2023-02-28T06:30:08;-5.80;99.90
41882;DHT22;27562;47.524;12.404;2023-02-28T06:32:34;-5.80;99.90
41882;DHT22;27562;47.524;12.404;2023-02-28T06:35:01;-5.80;99.90
41882;DHT22;27562;47.524;12.404;2023-02-28T06:37:27;-5.80;99.90
41882;DHT22;27562;47.524;12.404;2023-02-28T06:40:06;-5.80;99.90
41882;DHT22;27562;47.524;12.404;2023-02-28T06:42:34;-5.80;99.90
41882;DHT22;27562;47.524;12.404;2023-02-28T06:45:00;-5.80;99.90
41882;DHT22;27562;47.524;12.404;2023-02-28T06:47:25;-5.80;99.90
41882;DHT22;27562;47.524;12.404;2023-02-28T06:49:51;-5.80;99.90
41882;DHT22;27562;47.524;12.404;2023-02-28T06:52:16;-5.80;99.90
41882;DHT22;27562;47.524;12.404;2023-02-28T06:54:42;-5.70;99.90
41882;DHT22;27562;47.524;12.404;2023-02-28T06:57:08;-5.80;99.90
41882;DHT22;27562;47.524;12.404;2023-02-28T06:59:33;-5.70;99.90
41882;DHT22;27562;47.524;12.404;2023-02-28T07:02:00;-5.70;99.90
41882;DHT22;27562;47.524;12.404;2023-02-28T07:04:27;-5.70;99.90
41882;DHT22;27562;47.524;12.404;2023-02-28T07:06:53;-5.70;99.90
41882;DHT22;27562;47.524;12.404;2023-02-28T07:09:21;-5.60;99.90
41882;DHT22;27562;47.524;12.404;2023-02-28T07:11:46;-5.50;99.90
41882;DHT22;27562;47.524;12.404;2023-02-28T07:14:12;-5.50;99.90
41882;DHT22;27562;47.524;12.404;2023-02-28T07:16:38;-5.40;99.90
41882;DHT22;27562;47.524;12.404;2023-02-28T07:19:03;-5.30;99.90
41882;DHT22;27562;47.524;12.404;2023-02-28T07:21:29;-5.20;99.90
41882;DHT22;27562;47.524;12.404;2023-02-28T07:23:55;-5.20;99.90
41882;DHT22;27562;47.524;12.404;2023-02-28T07:26:21;-5.10;99.90
41882;DHT22;27562;47.524;12.404;2023-02-28T07:28:47;-5.00;99.90
41882;DHT22;27562;47.524;12.404;2023-02-28T07:31:14;-4.90;99.90
41882;DHT22;27562;47.524;12.404;2023-02-28T07:33:40;-4.90;99.90
41882;DHT22;27562;47.524;12.404;2023-02-28T07:36:06;-4.90;99.90
41882;DHT22;27562;47.524;12.404;2023-02-28T07:38:36;-4.80;99.90
41882;DHT22;27562;47.524;12.404;2023-02-28T07:41:02;-4.90;99.90
41882;DHT22;27562;47.524;12.404;2023-02-28T07:43:31;-4.80;99.90
41882;DHT22;27562;47.524;12.404;2023-02-28T07:46:10;-4.70;99.90
41882;DHT22;27562;47.524;12.404;2023-02-28T07:48:36;-4.60;99.90
41882;DHT22;27562;47.524;12.404;2023-02-28T07:51:02;-4.50;99.90
41882;DHT22;27562;47.524;12.404;2023-02-28T07:53:27;-4.40;99.90
41882;DHT22;27562;47.524;12.404;2023-02-28T07:55:56;-4.40;99.90
41882;DHT22;27562;47.524;12.404;2023-02-28T07:58:23;-4.40;99.90
41882;DHT22;27562;47.524;12.404;2023-02-28T08:00:49;-4.40;99.90
41882;DHT22;27562;47.524;12.404;2023-02-28T08:03:14;-4.30;99.90
41882;DHT22;27562;47.524;12.404;2023-02-28T08:05:40;-4.30;99.90
41882;DHT22;27562;47.524;12.404;2023-02-28T08:08:06;-4.30;99.90
41882;DHT22;27562;47.524;12.404;2023-02-28T08:10:31;-4.20;99.90
41882;DHT22;27562;47.524;12.404;2023-02-28T08:12:57;-4.00;99.90
41882;DHT22;27562;47.524;12.404;2023-02-28T08:15:23;-3.90;99.90
41882;DHT22;27562;47.524;12.404;2023-02-28T08:17:48;-3.80;99.90
41882;DHT22;27562;47.524;12.404;2023-02-28T08:20:14;-3.70;99.90
41882;DHT22;27562;47.524;12.404;2023-02-28T08:22:39;-3.70;99.90
41882;DHT22;27562;47.524;12.404;2023-02-28T08:25:05;-3.60;99.90
41882;DHT22;27562;47.524;12.404;2023-02-28T08:27:32;-3.50;99.90
41882;DHT22;27562;47.524;12.404;2023-02-28T08:29:58;-3.40;99.90
41882;DHT22;27562;47.524;12.404;2023-02-28T08:32:23;-3.20;99.90
41882;DHT22;27562;47.524;12.404;2023-02-28T08:34:49;-3.10;99.90
41882;DHT22;27562;47.524;12.404;2023-02-28T08:37:14;-3.00;99.90
41882;DHT22;27562;47.524;12.404;2023-02-28T08:39:40;-2.90;99.90
41882;DHT22;27562;47.524;12.404;2023-02-28T08:42:06;-2.80;99.90
41882;DHT22;27562;47.524;12.404;2023-02-28T08:44:31;-2.80;99.90
41882;DHT22;27562;47.524;12.404;2023-02-28T08:46:57;-2.70;99.90
41882;DHT22;27562;47.524;12.404;2023-02-28T08:49:22;-2.60;99.90
41882;DHT22;27562;47.524;12.404;2023-02-28T08:51:48;-2.60;99.90
41882;DHT22;27562;47.524;12.404;2023-02-28T08:54:13;-2.50;99.90
41882;DHT22;27562;47.524;12.404;2023-02-28T08:56:41;-2.40;99.90
41882;DHT22;27562;47.524;12.404;2023-02-28T08:59:08;-2.40;99.90
41882;DHT22;27562;47.524;12.404;2023-02-28T09:01:34;-2.30;99.90
41882;DHT22;27562;47.524;12.404;2023-02-28T09:04:01;-2.20;99.90
41882;DHT22;27562;47.524;12.404;2023-02-28T09:06:27;-2.20;99.90
41882;DHT22;27562;47.524;12.404;2023-02-28T09:08:55;-2.10;99.90
41882;DHT22;27562;47.524;12.404;2023-02-28T09:11:23;-2.00;99.90
41882;DHT22;27562;47.524;12.404;2023-02-28T09:13:49;-1.90;99.90
41882;DHT22;27562;47.524;12.404;2023-02-28T09:16:15;-1.80;99.90
41882;DHT22;27562;47.524;12.404;2023-02-28T09:18:41;-1.70;99.90
41882;DHT22;27562;47.524;12.404;2023-02-28T09:21:08;-1.50;99.90
41882;DHT22;27562;47.524;12.404;2023-02-28T09:23:34;-1.40;99.90
41882;DHT22;27562;47.524;12.404;2023-02-28T09:25:59;-1.30;99.90
41882;DHT22;27562;47.524;12.404;2023-02-28T09:28:25;-1.20;99.90
41882;DHT22;27562;47.524;12.404;2023-02-28T09:30:52;-1.20;99.90
41882;DHT22;27562;47.524;12.404;2023-02-28T09:33:18;-1.10;99.90
41882;DHT22;27562;47.524;12.404;2023-02-28T09:35:46;-1.00;99.90
41882;DHT22;27562;47.524;12.404;2023-02-28T09:38:12;-0.90;99.90
41882;DHT22;27562;47.524;12.404;2023-02-28T09:40:49;-0.70;99.90
41882;DHT22;27562;47.524;12.404;2023-02-28T09:43:15;-0.70;99.90
41882;DHT22;27562;47.524;12.404;2023-02-28T09:45:44;-0.60;99.90
41882;DHT22;27562;47.524;12.404;2023-02-28T09:48:14;-0.50;99.90
41882;DHT22;27562;47.524;12.404;2023-02-28T09:50:41;-0.40;99.90
41882;DHT22;27562;47.524;12.404;2023-02-28T09:53:22;-0.40;99.90
41882;DHT22;27562;47.524;12.404;2023-02-28T09:56:09;-0.40;99.90
41882;DHT22;27562;47.524;12.404;2023-02-28T09:58:39;-0.30;99.90
41882;DHT22;27562;47.524;12.404;2023-02-28T10:01:09;-0.30;99.90
41882;DHT22;27562;47.524;12.404;2023-02-28T10:03:46;-0.30;99.90
41882;DHT22;27562;47.524;12.404;2023-02-28T10:08:40;-0.10;99.90
41882;DHT22;27562;47.524;12.404;2023-02-28T10:11:07;0.10;99.90
41882;DHT22;27562;47.524;12.404;2023-02-28T10:13:37;0.20;99.90
41882;DHT22;27562;47.524;12.404;2023-02-28T10:16:10;0.20;99.90
41882;DHT22;27562;47.524;12.404;2023-02-28T10:18:41;0.20;99.90
41882;DHT22;27562;47.524;12.404;2023-02-28T10:21:13;0.30;99.90
41882;DHT22;27562;47.524;12.404;2023-02-28T10:23:43;0.40;99.90
41882;DHT22;27562;47.524;12.404;2023-02-28T10:26:14;0.40;99.90
41882;DHT22;27562;47.524;12.404;2023-02-28T10:28:44;0.50;99.90
41882;DHT22;27562;47.524;12.404;2023-02-28T10:31:17;0.60;99.90
41882;DHT22;27562;47.524;12.404;2023-02-28T10:33:43;0.70;99.90
41882;DHT22;27562;47.524;12.404;2023-02-28T10:36:10;0.70;99.90
41882;DHT22;27562;47.524;12.404;2023-02-28T10:38:39;0.80;99.90
41882;DHT22;27562;47.524;12.404;2023-02-28T10:41:08;0.90;99.90
41882;DHT22;27562;47.524;12.404;2023-02-28T10:43:34;1.00;99.90
41882;DHT22;27562;47.524;12.404;2023-02-28T10:46:02;1.10;99.90
41882;DHT22;27562;47.524;12.404;2023-02-28T10:48:38;1.20;99.90
41882;DHT22;27562;47.524;12.404;2023-02-28T10:51:08;1.30;99.90
41882;DHT22;27562;47.524;12.404;2023-02-28T10:53:36;1.40;99.90
41882;DHT22;27562;47.524;12.404;2023-02-28T10:56:13;1.50;99.90
41882;DHT22;27562;47.524;12.404;2023-02-28T11:03:55;1.80;99.90
41882;DHT22;27562;47.524;12.404;2023-02-28T11:06:27;1.90;99.90
41882;DHT22;27562;47.524;12.404;2023-02-28T11:08:55;2.00;99.90
41882;DHT22;27562;47.524;12.404;2023-02-28T11:11:21;2.10;99.90
41882;DHT22;27562;47.524;12.404;2023-02-28T11:13:50;2.20;99.90
41882;DHT22;27562;47.524;12.404;2023-02-28T11:16:16;2.20;99.90
41882;DHT22;27562;47.524;12.404;2023-02-28T11:21:08;2.30;99.90
41882;DHT22;27562;47.524;12.404;2023-02-28T11:23:35;2.30;99.90
41882;DHT22;27562;47.524;12.404;2023-02-28T11:26:02;2.40;99.90
41882;DHT22;27562;47.524;12.404;2023-02-28T11:28:36;2.50;99.90
41882;DHT22;27562;47.524;12.404;2023-02-28T11:31:08;2.60;99.90
41882;DHT22;27562;47.524;12.404;2023-02-28T11:33:41;2.60;99.90
41882;DHT22;27562;47.524;12.404;2023-02-28T11:36:40;2.70;99.90
41882;DHT22;27562;47.524;12.404;2023-02-28T11:39:00;2.60;99.90
41882;DHT22;27562;47.524;12.404;2023-02-28T11:44:10;2.60;99.90
41882;DHT22;27562;47.524;12.404;2023-02-28T11:51:59;2.70;99.90
41882;DHT22;27562;47.524;12.404;2023-02-28T12:02:23;2.70;99.90
41882;DHT22;27562;47.524;12.404;2023-02-28T12:07:25;2.70;99.90
41882;DHT22;27562;47.524;12.404;2023-02-28T12:12:28;2.80;99.90
41882;DHT22;27562;47.524;12.404;2023-02-28T12:17:29;2.90;99.90
41882;DHT22;27562;47.524;12.404;2023-02-28T12:27:33;3.10;99.90
41882;DHT22;27562;47.524;12.404;2023-02-28T12:30:15;3.10;99.90
41882;DHT22;27562;47.524;12.404;2023-02-28T12:32:56;3.10;99.90
41882;DHT22;27562;47.524;12.404;2023-02-28T12:35:27;3.20;99.90
41882;DHT22;27562;47.524;12.404;2023-02-28T12:38:36;3.30;99.90
41882;DHT22;27562;47.524;12.404;2023-02-28T12:40:47;3.40;99.90
41882;DHT22;27562;47.524;12.404;2023-02-28T12:43:14;3.40;99.90
41882;DHT22;27562;47.524;12.404;2023-02-28T12:48:08;3.60;99.90
41882;DHT22;27562;47.524;12.404;2023-02-28T12:50:35;3.60;99.90
41882;DHT22;27562;47.524;12.404;2023-02-28T13:00:23;3.70;99.90
41882;DHT22;27562;47.524;12.404;2023-02-28T13:10:46;3.80;99.90
41882;DHT22;27562;47.524;12.404;2023-02-28T13:13:19;3.90;99.90
41882;DHT22;27562;47.524;12.404;2023-02-28T13:20:58;3.90;99.90
41882;DHT22;27562;47.524;12.404;2023-02-28T13:23:56;4.10;99.90
41882;DHT22;27562;47.524;12.404;2023-02-28T13:26:16;4.10;99.90
41882;DHT22;27562;47.524;12.404;2023-02-28T13:31:14;4.20;99.90
41882;DHT22;27562;47.524;12.404;2023-02-28T13:46:31;5.00;99.90
41882;DHT22;27562;47.524;12.404;2023-02-28T13:51:43;5.00;99.90
41882;DHT22;27562;47.524;12.404;2023-02-28T13:54:17;4.90;99.90
41882;DHT22;27562;47.524;12.404;2023-02-28T14:05:05;4.70;99.90
41882;DHT22;27562;47.524;12.404;2023-02-28T14:07:43;4.60;99.90
41882;DHT22;27562;47.524;12.404;2023-02-28T14:10:15;4.60;99.90
41882;DHT22;27562;47.524;12.404;2023-02-28T14:17:59;4.80;99.90
41882;DHT22;27562;47.524;12.404;2023-02-28T14:20:27;4.80;99.90
41882;DHT22;27562;47.524;12.404;2023-02-28T14:25:38;4.80;99.90
41882;DHT22;27562;47.524;12.404;2023-02-28T14:30:49;4.80;99.90
41882;DHT22;27562;47.524;12.404;2023-02-28T14:33:22;4.70;99.90
41882;DHT22;27562;47.524;12.404;2023-02-28T14:38:39;4.60;99.90
41882;DHT22;27562;47.524;12.404;2023-02-28T14:41:12;4.60;99.90
41882;DHT22;27562;47.524;12.404;2023-02-28T14:43:46;4.50;99.90
41882;DHT22;27562;47.524;12.404;2023-02-28T14:46:12;4.40;99.90
41882;DHT22;27562;47.524;12.404;2023-02-28T14:48:38;4.40;99.90
41882;DHT22;27562;47.524;12.404;2023-02-28T14:51:04;4.40;99.90
41882;DHT22;27562;47.524;12.404;2023-02-28T14:53:34;4.40;99.90
41882;DHT22;27562;47.524;12.404;2023-02-28T14:56:00;4.40;99.90
41882;DHT22;27562;47.524;12.404;2023-02-28T14:58:27;4.40;99.90
41882;DHT22;27562;47.524;12.404;2023-02-28T15:00:54;4.40;99.90
41882;DHT22;27562;47.524;12.404;2023-02-28T15:05:56;4.50;99.90
41882;DHT22;27562;47.524;12.404;2023-02-28T15:08:22;4.60;99.90
41882;DHT22;27562;47.524;12.404;2023-02-28T15:10:52;4.50;99.90
41882;DHT22;27562;47.524;12.404;2023-02-28T15:13:18;4.50;99.90
41882;DHT22;27562;47.524;12.404;2023-02-28T15:15:54;4.50;99.90
41882;DHT22;27562;47.524;12.404;2023-02-28T15:21:11;4.30;99.90
41882;DHT22;27562;47.524;12.404;2023-02-28T15:23:37;4.10;99.90
41882;DHT22;27562;47.524;12.404;2023-02-28T15:26:03;4.00;99.90
41882;DHT22;27562;47.524;12.404;2023-02-28T15:28:29;4.00;99.90
41882;DHT22;27562;47.524;12.404;2023-02-28T15:31:00;3.90;99.90
41882;DHT22;27562;47.524;12.404;2023-02-28T15:33:26;3.80;99.90
41882;DHT22;27562;47.524;12.404;2023-02-28T15:36:05;3.80;99.90
41882;DHT22;27562;47.524;12.404;2023-02-28T15:38:33;3.70;99.90
41882;DHT22;27562;47.524;12.404;2023-02-28T15:40:58;3.70;99.90
41882;DHT22;27562;47.524;12.404;2023-02-28T15:43:25;3.60;99.90
41882;DHT22;27562;47.524;12.404;2023-02-28T15:45:55;3.50;99.90
41882;DHT22;27562;47.524;12.404;2023-02-28T15:48:22;3.50;99.90
41882;DHT22;27562;47.524;12.404;2023-02-28T15:50:52;3.40;99.90
41882;DHT22;27562;47.524;12.404;2023-02-28T15:53:20;3.20;99.90
41882;DHT22;27562;47.524;12.404;2023-02-28T15:55:52;3.20;99.90
41882;DHT22;27562;47.524;12.404;2023-02-28T15:58:18;3.10;99.90
41882;DHT22;27562;47.524;12.404;2023-02-28T16:00:44;3.00;99.90
41882;DHT22;27562;47.524;12.404;2023-02-28T16:03:27;2.90;99.90
41882;DHT22;27562;47.524;12.404;2023-02-28T16:08:40;2.70;99.90
41882;DHT22;27562;47.524;12.404;2023-02-28T16:11:07;2.60;99.90
41882;DHT22;27562;47.524;12.404;2023-02-28T16:13:33;2.40;99.90
41882;DHT22;27562;47.524;12.404;2023-02-28T16:15:59;2.40;99.90
41882;DHT22;27562;47.524;12.404;2023-02-28T16:18:26;2.30;99.90
41882;DHT22;27562;47.524;12.404;2023-02-28T16:20:53;2.10;99.90
41882;DHT22;27562;47.524;12.404;2023-02-28T16:23:19;2.10;99.90
41882;DHT22;27562;47.524;12.404;2023-02-28T16:25:44;2.00;99.90
41882;DHT22;27562;47.524;12.404;2023-02-28T16:31:06;1.80;99.90
41882;DHT22;27562;47.524;12.404;2023-02-28T16:33:34;1.70;99.90
41882;DHT22;27562;47.524;12.404;2023-02-28T16:36:00;1.60;99.90
41882;DHT22;27562;47.524;12.404;2023-02-28T16:38:26;1.50;99.90
41882;DHT22;27562;47.524;12.404;2023-02-28T16:40:53;1.50;99.90
41882;DHT22;27562;47.524;12.404;2023-02-28T16:43:22;1.40;99.90
41882;DHT22;27562;47.524;12.404;2023-02-28T16:45:49;1.40;99.90
41882;DHT22;27562;47.524;12.404;2023-02-28T16:48:19;1.30;99.90
41882;DHT22;27562;47.524;12.404;2023-02-28T16:50:45;1.30;99.90
41882;DHT22;27562;47.524;12.404;2023-02-28T16:53:10;1.20;99.90
41882;DHT22;27562;47.524;12.404;2023-02-28T16:55:36;1.20;99.90
41882;DHT22;27562;47.524;12.404;2023-02-28T16:58:02;1.10;99.90
41882;DHT22;27562;47.524;12.404;2023-02-28T17:00:28;1.10;99.90
41882;DHT22;27562;47.524;12.404;2023-02-28T17:02:54;1.10;99.90
41882;DHT22;27562;47.524;12.404;2023-02-28T17:05:20;1.10;99.90
41882;DHT22;27562;47.524;12.404;2023-02-28T17:07:46;1.10;99.90
41882;DHT22;27562;47.524;12.404;2023-02-28T17:10:16;1.00;99.90
41882;DHT22;27562;47.524;12.404;2023-02-28T17:12:43;1.10;99.90
41882;DHT22;27562;47.524;12.404;2023-02-28T17:15:09;1.00;99.90
41882;DHT22;27562;47.524;12.404;2023-02-28T17:17:35;1.00;99.90
41882;DHT22;27562;47.524;12.404;2023-02-28T17:20:01;0.90;99.90
41882;DHT22;27562;47.524;12.404;2023-02-28T17:22:27;0.90;99.90
41882;DHT22;27562;47.524;12.404;2023-02-28T17:24:52;0.90;99.90
41882;DHT22;27562;47.524;12.404;2023-02-28T17:27:21;0.90;99.90
41882;DHT22;27562;47.524;12.404;2023-02-28T17:29:47;0.80;99.90
41882;DHT22;27562;47.524;12.404;2023-02-28T17:32:13;0.80;99.90
41882;DHT22;27562;47.524;12.404;2023-02-28T17:34:39;0.80;99.90
41882;DHT22;27562;47.524;12.404;2023-02-28T17:37:05;0.80;99.90
41882;DHT22;27562;47.524;12.404;2023-02-28T17:39:30;0.80;99.90
41882;DHT22;27562;47.524;12.404;2023-02-28T17:41:56;0.80;99.90
41882;DHT22;27562;47.524;12.404;2023-02-28T17:44:23;0.80;99.90
41882;DHT22;27562;47.524;12.404;2023-02-28T17:46:50;0.80;99.90
41882;DHT22;27562;47.524;12.404;2023-02-28T17:49:18;0.80;99.90
41882;DHT22;27562;47.524;12.404;2023-02-28T17:51:43;0.80;99.90
41882;DHT22;27562;47.524;12.404;2023-02-28T17:54:10;0.80;99.90
41882;DHT22;27562;47.524;12.404;2023-02-28T17:56:35;0.80;99.90
41882;DHT22;27562;47.524;12.404;2023-02-28T17:59:01;0.80;99.90
41882;DHT22;27562;47.524;12.404;2023-02-28T18:01:27;0.80;99.90
41882;DHT22;27562;47.524;12.404;2023-02-28T18:03:53;0.80;99.90
41882;DHT22;27562;47.524;12.404;2023-02-28T18:06:20;0.90;99.90